Bol'shoy Kamen', Russia
Current Conditions -  °F | °C
As of 12:00 PM on Monday 22 Dec 2014 (Local Time) from UHWW Reporting Station
Scattered Clouds Scattered Clouds  
Wind Chill:   Ceiling: Unl
Heat Index:   Visibility: 6mi
Dew Point: -8°   Wind: 0mph
Humidity: 52%   Direction: NA
Pressure: 29.85"   Gusts: NA
Location:  43.13°N, 132.47°E
Report Text: UHWW 220200Z 00000MPS 9999 SCT200 M14/M22 Q1011 NOSIG RMKQFE757/1009 25CLRD60
Loading
Personal Weather Stations






























Interactive Weather Map New forecast layout! Learn more

10-Day Weather Forecast

Advertisements
Track Severe Weather on mobile